Time;durP1;ratioP1;P1;durP2;ratioP2;P2;SDS_P1;SDS_P2;PMS_P1;PMS_P2;Temp;Humidity;BMP_temperature;BMP_pressure;BME280_temperature;BME280_humidity;BME280_pressure;Samples;Min_cycle;Max_cycle;Signal;HPM_P1;HPM_P2
2022/01/09 00:00:12;;;;;;;18.08;12.35;;;4.70;99.90;;;;;;5156466;27;20047;-65
2022/01/09 00:02:39;;;;;;;17.60;12.30;;;;;;;;;;5156526;27;20039;-65
2022/01/09 00:05:05;;;;;;;;;;;4.60;99.90;;;;;;5156917;27;20053;-65
2022/01/09 00:07:30;;;;;;;19.42;12.65;;;4.80;99.90;;;;;;5156424;27;20275;-65
2022/01/09 00:09:57;;;;;;;18.52;13.18;;;;;;;;;;5155773;27;20390;-65
2022/01/09 00:12:26;;;;;;;20.55;13.10;;;;;;;;;;5156468;27;20146;-65
2022/01/09 00:14:52;;;;;;;22.30;12.65;;;4.70;99.90;;;;;;5155967;27;20042;-65
2022/01/09 00:17:18;;;;;;;20.30;13.48;;;4.70;99.90;;;;;;5155977;27;20417;-65
2022/01/09 00:19:45;;;;;;;20.15;13.80;;;;;;;;;;5156198;27;20045;-64
2022/01/09 00:22:11;;;;;;;19.77;13.57;;;4.80;99.90;;;;;;5155927;27;20552;-65
2022/01/09 00:24:37;;;;;;;;;;;4.60;99.90;;;;;;5156529;27;20038;-65
2022/01/09 00:27:03;;;;;;;23.65;14.50;;;;;;;;;;5156067;27;19929;-65
2022/01/09 00:29:29;;;;;;;23.60;14.30;;;4.80;99.90;;;;;;5155783;27;20099;-65
2022/01/09 00:31:55;;;;;;;22.10;14.73;;;;;;;;;;5156311;27;20035;-65
2022/01/09 00:34:21;;;;;;;26.60;15.88;;;4.90;99.90;;;;;;5155970;27;20145;-65
2022/01/09 00:36:47;;;;;;;23.70;15.00;;;;;;;;;;5155933;27;20545;-65
2022/01/09 00:39:13;;;;;;;26.55;15.15;;;4.70;99.90;;;;;;5155829;27;20126;-65
2022/01/09 00:41:39;;;;;;;28.63;16.27;;;;;;;;;;5156043;27;20134;-65
2022/01/09 00:44:05;;;;;;;23.55;15.02;;;;;;;;;;5155159;27;20095;-65
2022/01/09 00:46:33;;;;;;;24.70;15.27;;;4.70;99.90;;;;;;5137558;27;20398;-65
2022/01/09 00:49:03;;;;;;;29.95;16.27;;;4.70;99.90;;;;;;5155672;27;20050;-65
2022/01/09 00:51:29;;;;;;;24.65;15.68;;;;;;;;;;5155916;27;20133;-65
2022/01/09 00:53:55;;;;;;;28.83;16.40;;;4.70;99.90;;;;;;5155581;27;20086;-66
2022/01/09 00:56:20;;;;;;;23.60;15.07;;;4.60;99.90;;;;;;5155765;27;20042;-65
2022/01/09 00:58:46;;;;;;;26.70;15.70;;;;;;;;;;5155453;27;20039;-66
2022/01/09 01:01:12;;;;;;;26.95;15.40;;;4.70;99.90;;;;;;5155495;27;20047;-65
2022/01/09 01:03:38;;;;;;;23.10;15.13;;;4.60;99.90;;;;;;5155444;27;20375;-65
2022/01/09 01:06:04;;;;;;;23.75;14.82;;;4.70;99.90;;;;;;5155206;27;20048;-65
2022/01/09 01:08:29;;;;;;;27.50;15.90;;;4.90;99.90;;;;;;5136927;27;20069;-65
2022/01/09 01:10:55;;;;;;;28.65;16.50;;;4.70;99.90;;;;;;5155368;27;20043;-65
2022/01/09 01:13:21;;;;;;;25.15;15.35;;;4.70;99.90;;;;;;5136406;27;20043;-65
2022/01/09 01:15:47;;;;;;;24.98;14.85;;;;;;;;;;5154932;27;20091;-65
2022/01/09 01:18:13;;;;;;;21.55;13.18;;;4.70;99.90;;;;;;5155266;27;20046;-65
2022/01/09 01:20:39;;;;;;;26.15;14.90;;;4.80;99.90;;;;;;5136459;27;20397;-65
2022/01/09 01:23:05;;;;;;;24.77;14.70;;;5.00;99.90;;;;;;5155223;27;20046;-65
2022/01/09 01:25:32;;;;;;;26.83;15.90;;;;;;;;;;5137295;27;20081;-65
2022/01/09 01:27:57;;;;;;;;;;;4.50;99.90;;;;;;5155387;27;20371;-64
2022/01/09 01:30:23;;;;;;;29.33;15.60;;;;;;;;;;5155052;27;19927;-65
2022/01/09 01:32:49;;;;;;;31.00;17.10;;;;;;;;;;5155161;27;20043;-65
2022/01/09 01:35:15;;;;;;;31.50;16.95;;;5.10;99.90;;;;;;5154991;27;20054;-65
2022/01/09 01:37:42;;;;;;;33.92;16.58;;;4.90;99.90;;;;;;5155022;27;20050;-64
2022/01/09 01:40:14;;;;;;;;;;;4.80;99.90;;;;;;5136993;27;20039;-65
2022/01/09 01:42:41;;;;;;;29.92;14.40;;;4.70;99.90;;;;;;5154524;27;19972;-64
2022/01/09 01:45:08;;;;;;;24.77;14.23;;;4.90;99.90;;;;;;5154989;27;20107;-65
2022/01/09 01:47:34;;;;;;;30.80;13.60;;;4.70;99.90;;;;;;5154970;27;20046;-65
2022/01/09 01:49:59;;;;;;;32.42;15.85;;;4.80;99.90;;;;;;5154950;27;20137;-64
2022/01/09 01:52:34;;;;;;;36.55;16.60;;;4.90;99.90;;;;;;5154608;27;20432;-65
2022/01/09 01:55:00;;;;;;;33.00;16.45;;;4.90;99.90;;;;;;5154734;27;20379;-65
2022/01/09 01:57:26;;;;;;;37.60;17.63;;;4.90;99.90;;;;;;5154839;27;20046;-65
2022/01/09 01:59:54;;;;;;;35.53;18.23;;;4.80;99.90;;;;;;5154927;27;20474;-65
2022/01/09 02:02:22;;;;;;;40.80;17.90;;;;;;;;;;5154825;27;20538;-65
2022/01/09 02:04:48;;;;;;;35.70;18.55;;;;;;;;;;5154807;27;20043;-65
2022/01/09 02:07:14;;;;;;;36.47;17.67;;;4.90;99.90;;;;;;5154699;27;20142;-65
2022/01/09 02:09:39;;;;;;;38.10;16.42;;;4.70;99.90;;;;;;5154494;27;20081;-65
2022/01/09 02:12:06;;;;;;;36.58;16.27;;;4.80;99.90;;;;;;5154699;27;20046;-66
2022/01/09 02:14:38;;;;;;;36.90;16.15;;;4.90;99.90;;;;;;5154665;27;20491;-65
2022/01/09 02:17:05;;;;;;;40.42;15.45;;;4.90;99.90;;;;;;5154709;27;20054;-64
2022/01/09 02:19:30;;;;;;;32.72;14.50;;;4.80;99.90;;;;;;5154945;27;20485;-64
2022/01/09 02:21:58;;;;;;;34.13;8.15;;;5.10;99.90;;;;;;5154704;27;20079;-65
2022/01/09 02:24:25;;;;;;;23.60;6.55;;;5.30;99.90;;;;;;5154088;27;20439;-65
2022/01/09 02:26:51;;;;;;;;;;;5.90;99.90;;;;;;5155264;27;20066;-65
2022/01/09 02:29:17;;;;;;;35.15;4.97;;;5.60;99.90;;;;;;5154542;27;19926;-65
2022/01/09 02:31:44;;;;;;;29.48;5.05;;;;;;;;;;5154277;27;20494;-64
2022/01/09 02:34:11;;;;;;;41.92;4.30;;;5.70;99.90;;;;;;5139291;27;20459;-65
2022/01/09 02:36:37;;;;;;;34.25;3.83;;;5.60;99.90;;;;;;5158451;27;20038;-65
2022/01/09 02:39:03;;;;;;;34.38;4.20;;;;;;;;;;5158147;27;20049;-65
2022/01/09 02:41:29;;;;;;;35.45;4.60;;;;;;;;;;5158170;27;20088;-66
2022/01/09 02:43:55;;;;;;;24.33;3.58;;;;;;;;;;5158307;27;20552;-74
2022/01/09 02:48:52;;;;;;;36.20;5.13;;;6.10;99.90;;;;;;5158191;27;20055;-67
2022/01/09 02:51:18;;;;;;;36.60;4.97;;;6.10;99.90;;;;;;5139770;27;20046;-66
2022/01/09 02:53:46;;;;;;;36.35;5.05;;;6.30;99.90;;;;;;5157710;27;20130;-67
2022/01/09 02:56:12;;;;;;;36.35;4.63;;;6.10;99.90;;;;;;5139432;27;20490;-67
2022/01/09 02:58:38;;;;;;;33.78;4.40;;;6.00;99.90;;;;;;5157836;27;20046;-66
2022/01/09 03:01:07;;;;;;;43.95;4.85;;;6.10;99.90;;;;;;5157816;27;20089;-66
2022/01/09 03:03:33;;;;;;;40.33;5.15;;;6.00;99.90;;;;;;5157743;27;20130;-66
2022/01/09 03:05:59;;;;;;;41.15;6.07;;;6.20;99.90;;;;;;5157759;27;20078;-66
2022/01/09 03:08:24;;;;;;;;;;;6.20;99.90;;;;;;5157810;27;20046;-67
2022/01/09 03:10:50;;;;;;;47.78;6.15;;;6.50;99.90;;;;;;5157663;27;19923;-66
2022/01/09 03:13:16;;;;;;;63.25;6.55;;;6.20;99.90;;;;;;5157554;27;20549;-67
2022/01/09 03:15:42;;;;;;;49.63;7.32;;;6.40;99.90;;;;;;5157478;27;20030;-68
2022/01/09 03:18:08;;;;;;;72.57;8.18;;;6.30;99.90;;;;;;5157277;27;20095;-67
2022/01/09 03:20:34;;;;;;;62.90;7.10;;;;;;;;;;5138620;27;20046;-67
2022/01/09 03:22:59;;;;;;;73.88;7.47;;;6.80;99.90;;;;;;5157217;27;20043;-67
2022/01/09 03:25:26;;;;;;;68.15;7.65;;;6.50;99.90;;;;;;5138916;27;20125;-66
2022/01/09 03:27:53;;;;;;;48.90;8.85;;;6.70;99.90;;;;;;5157294;27;20054;-67
2022/01/09 03:30:21;;;;;;;53.33;7.80;;;6.70;99.90;;;;;;5157238;27;20053;-67
2022/01/09 03:32:48;;;;;;;54.58;6.88;;;6.70;99.90;;;;;;5121823;27;20047;-67
2022/01/09 03:35:19;;;;;;;40.33;5.50;;;6.60;99.90;;;;;;5157030;27;20089;-66
2022/01/09 03:37:46;;;;;;;46.30;6.28;;;6.40;99.90;;;;;;5156833;27;20076;-66
2022/01/09 03:40:14;;;;;;;51.53;6.25;;;6.50;99.90;;;;;;5157057;27;20043;-66
2022/01/09 03:42:40;;;;;;;51.17;6.93;;;6.80;99.90;;;;;;5156923;27;20051;-67
2022/01/09 03:45:08;;;;;;;41.30;5.32;;;6.60;99.90;;;;;;5155808;27;20089;-66
2022/01/09 03:47:35;;;;;;;46.78;6.70;;;6.60;99.90;;;;;;5156756;27;20058;-66
2022/01/09 03:50:06;;;;;;;57.78;7.30;;;6.50;99.90;;;;;;5156873;27;20436;-68
2022/01/09 03:52:31;;;;;;;58.00;6.32;;;6.70;99.90;;;;;;5156620;27;20046;-67
2022/01/09 03:54:57;;;;;;;50.30;7.00;;;6.40;99.90;;;;;;5156681;27;20039;-66
2022/01/09 03:57:23;;;;;;;48.40;5.40;;;6.40;99.90;;;;;;5156441;27;20047;-67
2022/01/09 03:59:48;;;;;;;43.25;6.55;;;6.40;99.90;;;;;;5156757;27;20047;-66
2022/01/09 04:02:14;;;;;;;70.18;7.20;;;6.40;99.90;;;;;;5156579;27;20053;-66
2022/01/09 04:04:40;;;;;;;67.30;8.07;;;;;;;;;;5156521;27;20051;-66
2022/01/09 04:07:06;;;;;;;57.17;7.70;;;6.30;99.90;;;;;;5137916;27;20054;-67
2022/01/09 04:09:40;;;;;;;61.22;6.72;;;6.60;99.90;;;;;;5138143;27;20050;-69
2022/01/09 04:12:14;;;;;;;46.67;6.40;;;6.50;99.90;;;;;;5156602;27;20038;-67
2022/01/09 04:14:41;;;;;;;52.75;5.90;;;6.40;99.90;;;;;;5156322;27;20043;-66
2022/01/09 04:17:11;;;;;;;57.67;7.13;;;6.20;99.90;;;;;;5156294;27;20099;-67
2022/01/09 04:19:37;;;;;;;41.33;5.57;;;6.40;99.90;;;;;;5137791;27;20402;-68
2022/01/09 04:22:02;;;;;;;43.45;4.75;;;6.70;99.90;;;;;;5155929;27;20039;-67
2022/01/09 04:24:28;;;;;;;38.20;5.35;;;6.40;99.90;;;;;;5156159;27;20386;-67
2022/01/09 04:26:54;;;;;;;32.03;4.85;;;6.40;99.90;;;;;;5137998;27;20046;-72
2022/01/09 04:29:19;;;;;;;42.78;5.13;;;6.30;99.90;;;;;;5155919;27;20063;-66
2022/01/09 04:31:45;;;;;;;47.25;5.63;;;6.30;99.90;;;;;;5156027;27;20046;-67
2022/01/09 04:34:10;;;;;;;38.88;4.70;;;6.40;99.90;;;;;;5137420;27;20431;-68
2022/01/09 04:36:36;;;;;;;46.30;5.03;;;6.30;99.90;;;;;;5137266;27;20091;-70
2022/01/09 04:39:02;;;;;;;46.15;4.72;;;6.50;99.90;;;;;;5156071;27;20058;-69
2022/01/09 04:41:28;;;;;;;44.03;4.97;;;6.40;99.90;;;;;;5155805;27;20071;-67
2022/01/09 04:43:53;;;;;;;49.47;5.20;;;6.30;99.90;;;;;;5133627;27;20047;-67
2022/01/09 04:46:38;;;;;;;38.97;4.95;;;6.40;99.90;;;;;;5133882;27;20047;-67
2022/01/09 04:49:03;;;;;;;41.65;5.32;;;6.40;99.90;;;;;;5135019;27;20054;-67
2022/01/09 04:51:29;;;;;;;38.28;4.72;;;6.40;99.90;;;;;;5134661;27;20043;-70
2022/01/09 04:53:55;;;;;;;41.15;5.20;;;;;;;;;;5135190;27;20047;-68
2022/01/09 04:56:21;;;;;;;43.08;6.30;;;6.40;99.90;;;;;;5134475;27;20051;-67
2022/01/09 04:58:46;;;;;;;31.73;4.10;;;6.50;99.90;;;;;;5134814;27;20052;-67
2022/01/09 05:01:12;;;;;;;43.97;6.47;;;6.40;99.90;;;;;;5133818;27;20047;-67
2022/01/09 05:03:38;;;;;;;40.33;5.40;;;6.20;99.90;;;;;;5134472;27;20039;-67
2022/01/09 05:06:04;;;;;;;44.42;4.13;;;;;;;;;;5134885;27;20475;-68
2022/01/09 05:08:30;;;;;;;35.75;5.05;;;6.40;99.90;;;;;;5134693;27;20047;-67
2022/01/09 05:10:55;;;;;;;30.38;4.40;;;6.40;99.90;;;;;;5134701;27;20039;-68
2022/01/09 05:13:21;;;;;;;28.38;3.80;;;6.40;99.90;;;;;;5134681;27;20444;-68
2022/01/09 05:15:48;;;;;;;33.22;4.30;;;;;;;;;;5134523;27;20054;-67
2022/01/09 05:18:14;;;;;;;38.30;5.68;;;6.30;99.90;;;;;;5134818;27;20054;-70
2022/01/09 05:20:42;;;;;;;34.35;4.53;;;6.20;99.90;;;;;;5134598;27;20058;-67
2022/01/09 05:23:08;;;;;;;33.67;4.57;;;6.20;99.90;;;;;;5134973;27;20054;-66
2022/01/09 05:25:34;;;;;;;42.65;5.00;;;;;;;;;;5135713;27;20126;-73
2022/01/09 05:27:59;;;;;;;36.38;3.88;;;6.00;99.90;;;;;;5134894;27;20567;-67
2022/01/09 05:30:25;;;;;;;40.63;5.03;;;6.30;99.90;;;;;;5134927;27;20075;-68
2022/01/09 05:32:51;;;;;;;34.95;3.67;;;6.40;99.90;;;;;;5134763;27;20382;-66
2022/01/09 05:35:16;;;;;;;31.77;4.43;;;6.30;99.90;;;;;;5135244;28;20043;-67
2022/01/09 05:37:42;;;;;;;40.17;4.28;;;6.20;99.90;;;;;;5134893;28;20100;-67
2022/01/09 05:40:08;;;;;;;33.72;4.13;;;6.10;99.90;;;;;;5134200;28;20085;-67
2022/01/09 05:42:34;;;;;;;38.28;4.57;;;6.10;99.90;;;;;;5137593;27;20098;-67
2022/01/09 05:45:02;;;;;;;29.42;3.83;;;6.20;99.90;;;;;;5155039;27;20058;-67
2022/01/09 05:47:28;;;;;;;36.63;4.60;;;;;;;;;;5154778;27;20051;-67
2022/01/09 05:49:53;;;;;;;33.80;4.97;;;6.20;99.90;;;;;;5154947;27;20069;-69
2022/01/09 05:52:19;;;;;;;26.27;3.35;;;6.10;99.90;;;;;;5155214;27;20050;-69
2022/01/09 05:54:45;;;;;;;34.60;4.63;;;6.40;99.90;;;;;;5154888;27;20089;-67
2022/01/09 05:57:10;;;;;;;27.88;4.32;;;6.10;99.90;;;;;;5155875;27;20050;-69
2022/01/09 05:59:36;;;;;;;37.88;4.00;;;6.20;99.90;;;;;;5156670;27;20043;-67
2022/01/09 06:02:02;;;;;;;41.53;4.43;;;6.10;99.90;;;;;;5156009;27;20057;-68
2022/01/09 06:04:28;;;;;;;29.27;3.92;;;6.20;99.90;;;;;;5155948;27;20103;-68
2022/01/09 06:06:54;;;;;;;30.52;3.95;;;6.10;99.90;;;;;;5156012;27;20050;-67
2022/01/09 06:09:20;;;;;;;;;;;;;;;;;;5159493;27;20050;-68
2022/01/09 06:11:46;;;;;;;34.88;3.83;;;5.90;99.90;;;;;;5159050;27;19926;-67
2022/01/09 06:14:12;;;;;;;25.25;3.60;;;;;;;;;;5158810;27;20131;-69
2022/01/09 06:16:38;;;;;;;;;;;6.10;99.90;;;;;;5158806;27;20035;-67
2022/01/09 06:19:04;;;;;;;31.42;3.50;;;6.10;99.90;;;;;;5158683;27;19919;-67
2022/01/09 06:21:29;;;;;;;22.38;3.55;;;6.20;99.90;;;;;;5158770;27;20045;-69
2022/01/09 06:23:55;;;;;;;26.05;3.72;;;5.80;99.90;;;;;;5123173;27;20367;-74
2022/01/09 06:26:22;;;;;;;31.90;4.20;;;6.10;99.90;;;;;;5158548;27;20423;-71
2022/01/09 06:28:47;;;;;;;27.73;3.65;;;6.10;99.90;;;;;;5158460;27;20078;-68
2022/01/09 06:31:13;;;;;;;23.40;3.58;;;6.00;99.90;;;;;;5139891;27;20085;-68
2022/01/09 06:33:39;;;;;;;24.27;3.80;;;5.90;99.90;;;;;;5158457;27;20169;-69
2022/01/09 06:36:04;;;;;;;22.40;3.60;;;6.00;99.90;;;;;;5158306;27;20078;-68
2022/01/09 06:38:30;;;;;;;22.50;3.67;;;6.10;99.90;;;;;;5158632;27;20043;-67
2022/01/09 06:40:56;;;;;;;26.83;4.18;;;6.10;99.90;;;;;;5158268;27;20039;-69
2022/01/09 06:43:22;;;;;;;24.95;3.47;;;;;;;;;;5158068;27;20134;-68
2022/01/09 06:45:48;;;;;;;28.15;3.60;;;6.30;99.90;;;;;;5157882;27;20050;-67
2022/01/09 06:48:13;;;;;;;27.10;4.00;;;6.00;99.90;;;;;;5158176;27;20045;-67
2022/01/09 06:50:39;;;;;;;28.92;3.72;;;5.90;99.90;;;;;;5158132;27;20587;-67
2022/01/09 06:53:05;;;;;;;23.77;3.35;;;6.00;99.90;;;;;;5157980;27;20466;-67
2022/01/09 06:55:31;;;;;;;22.42;3.35;;;5.80;99.90;;;;;;5157902;27;20043;-67
2022/01/09 06:57:57;;;;;;;23.05;3.28;;;;;;;;;;5157918;27;20047;-67
2022/01/09 07:00:22;;;;;;;26.85;3.70;;;6.10;99.90;;;;;;5157871;27;20432;-67
2022/01/09 07:02:49;;;;;;;30.48;3.15;;;6.00;99.90;;;;;;5157874;27;20039;-67
2022/01/09 07:05:15;;;;;;;30.02;3.83;;;;;;;;;;5157692;27;20074;-66
2022/01/09 07:07:41;;;;;;;31.52;4.38;;;6.00;99.90;;;;;;5157804;27;20046;-69
2022/01/09 07:10:07;;;;;;;38.05;5.03;;;5.90;99.90;;;;;;5157816;27;20125;-70
2022/01/09 07:12:33;;;;;;;28.67;3.67;;;;;;;;;;5157919;27;20048;-68
2022/01/09 07:14:59;;;;;;;26.58;4.25;;;6.00;99.90;;;;;;5139225;27;20382;-67
2022/01/09 07:17:25;;;;;;;27.27;5.53;;;5.90;99.90;;;;;;5157326;27;20050;-68
2022/01/09 07:19:50;;;;;;;29.27;3.80;;;5.80;99.90;;;;;;5157263;27;20054;-67
2022/01/09 07:22:16;;;;;;;24.58;3.20;;;5.80;99.90;;;;;;5157434;27;20115;-67
2022/01/09 07:24:42;;;;;;;32.45;4.55;;;5.70;99.90;;;;;;5157366;27;20046;-67
2022/01/09 07:27:08;;;;;;;22.90;3.17;;;5.80;99.90;;;;;;5157307;27;20069;-67
2022/01/09 07:29:34;;;;;;;27.67;3.70;;;;;;;;;;5157253;27;20046;-67
2022/01/09 07:32:00;;;;;;;21.67;3.17;;;;;;;;;;5157186;27;20093;-73
2022/01/09 07:34:26;;;;;;;19.40;3.45;;;5.80;99.90;;;;;;5138785;27;20125;-68
2022/01/09 07:36:52;;;;;;;30.20;3.70;;;5.80;99.90;;;;;;5157084;27;20585;-67
2022/01/09 07:39:18;;;;;;;33.10;3.50;;;6.00;99.90;;;;;;5157099;27;20042;-68
2022/01/09 07:41:44;;;;;;;15.63;3.30;;;5.80;99.90;;;;;;5156925;27;20138;-68
2022/01/09 07:44:09;;;;;;;16.38;3.13;;;5.80;99.90;;;;;;5156939;27;20099;-68
2022/01/09 07:46:35;;;;;;;27.40;4.00;;;5.90;99.90;;;;;;5156881;27;20050;-68
2022/01/09 07:49:01;;;;;;;28.05;3.35;;;;;;;;;;5138625;27;20126;-68
2022/01/09 07:51:27;;;;;;;28.10;3.75;;;5.70;99.90;;;;;;5138572;27;20042;-67
2022/01/09 07:53:53;;;;;;;17.63;3.30;;;6.10;99.90;;;;;;5138179;27;20150;-67
2022/01/09 07:56:18;;;;;;;27.63;3.63;;;5.80;99.90;;;;;;5156636;27;20039;-68
2022/01/09 07:58:44;;;;;;;16.90;3.60;;;5.50;99.90;;;;;;5156492;27;20038;-67
2022/01/09 08:01:09;;;;;;;22.65;3.47;;;5.40;99.90;;;;;;5121671;27;20046;-69
2022/01/09 08:03:35;;;;;;;26.25;3.40;;;5.60;99.90;;;;;;5156629;27;20434;-68
2022/01/09 08:06:02;;;;;;;18.35;2.67;;;5.70;99.90;;;;;;5156469;27;20043;-68
2022/01/09 08:08:28;;;;;;;25.80;3.15;;;6.00;99.90;;;;;;5156157;27;20482;-68
2022/01/09 08:10:54;;;;;;;28.08;3.00;;;;;;;;;;5145117;27;20049;-68
2022/01/09 08:13:20;;;;;;;;;;;;;;;;;;5153601;27;20047;-68
2022/01/09 08:15:46;;;;;;;21.98;2.80;;;5.70;99.90;;;;;;5153399;27;19929;-67
2022/01/09 08:18:12;;;;;;;22.15;3.42;;;5.70;99.90;;;;;;5153208;27;20098;-67
2022/01/09 08:20:38;;;;;;;22.85;2.83;;;5.90;99.90;;;;;;5152476;27;20038;-68
2022/01/09 08:23:04;;;;;;;18.08;3.17;;;5.70;99.90;;;;;;5134962;27;20043;-69
2022/01/09 08:25:30;;;;;;;;;;;5.60;99.90;;;;;;5152920;27;20061;-68
2022/01/09 08:27:56;;;;;;;25.95;3.20;;;5.60;99.90;;;;;;5153090;27;20354;-68
2022/01/09 08:30:22;;;;;;;30.08;3.22;;;5.70;99.90;;;;;;5151152;27;20051;-68
2022/01/09 08:32:51;;;;;;;25.13;3.33;;;5.60;99.90;;;;;;5152841;27;20054;-68
2022/01/09 08:35:18;;;;;;;25.38;3.10;;;5.60;99.90;;;;;;5134192;27;20043;-69
2022/01/09 08:37:44;;;;;;;20.55;3.17;;;;;;;;;;5152812;27;20083;-67
2022/01/09 08:40:12;;;;;;;17.95;3.25;;;;;;;;;;5151688;27;20146;-68
2022/01/09 08:42:39;;;;;;;20.42;3.17;;;;;;;;;;5152507;27;20386;-72
2022/01/09 08:45:05;;;;;;;22.13;3.78;;;5.80;99.90;;;;;;5152885;27;20475;-68
2022/01/09 08:47:31;;;;;;;20.20;2.90;;;5.70;99.90;;;;;;5116846;27;20046;-69
2022/01/09 08:49:57;;;;;;;36.63;3.80;;;5.60;99.90;;;;;;5151548;27;20054;-69
2022/01/09 08:52:22;;;;;;;24.15;3.40;;;5.60;99.90;;;;;;5153239;27;20046;-68
2022/01/09 08:54:50;;;;;;;20.00;2.53;;;5.70;99.90;;;;;;5134287;27;20043;-68
2022/01/09 08:57:16;;;;;;;21.85;3.65;;;5.70;99.90;;;;;;5152132;27;20054;-68
2022/01/09 08:59:42;;;;;;;22.95;3.00;;;;;;;;;;5152365;27;20046;-74
2022/01/09 09:02:08;;;;;;;19.55;2.90;;;5.70;99.90;;;;;;5151854;27;20054;-71
2022/01/09 09:04:34;;;;;;;19.05;3.13;;;;;;;;;;5152554;27;20046;-68
2022/01/09 09:07:00;;;;;;;27.65;3.45;;;5.80;99.90;;;;;;5152169;27;20393;-68
2022/01/09 09:09:26;;;;;;;15.98;3.00;;;;;;;;;;5152223;27;20050;-69
2022/01/09 09:11:51;;;;;;;25.48;3.47;;;5.30;99.90;;;;;;5150836;27;20727;-69
2022/01/09 09:14:17;;;;;;;24.65;3.20;;;5.60;99.90;;;;;;5134051;27;20049;-69
2022/01/09 09:16:44;;;;;;;26.13;3.30;;;;;;;;;;5151768;27;20134;-69
2022/01/09 09:19:09;;;;;;;19.02;4.07;;;5.60;99.90;;;;;;5152154;27;20049;-68
2022/01/09 09:21:35;;;;;;;31.83;3.22;;;5.40;99.90;;;;;;5133472;27;20042;-68
2022/01/09 09:24:01;;;;;;;22.92;2.97;;;5.50;99.90;;;;;;5152348;27;20050;-69
2022/01/09 09:26:27;;;;;;;21.08;2.60;;;5.50;99.90;;;;;;5151933;27;20042;-68
2022/01/09 09:28:52;;;;;;;20.52;2.88;;;5.90;99.90;;;;;;5152342;27;20095;-70
2022/01/09 09:31:18;;;;;;;12.70;2.83;;;5.90;99.90;;;;;;5151149;27;20039;-69
2022/01/09 09:33:45;;;;;;;19.80;3.17;;;5.50;99.90;;;;;;5152112;27;20146;-68
2022/01/09 09:36:11;;;;;;;29.90;3.45;;;5.30;99.90;;;;;;5152401;27;20034;-72
2022/01/09 09:38:37;;;;;;;17.60;2.70;;;;;;;;;;5152563;27;20047;-70
2022/01/09 09:41:03;;;;;;;20.20;3.00;;;5.40;99.90;;;;;;5152671;27;20046;-69
2022/01/09 09:43:29;;;;;;;14.88;2.97;;;;;;;;;;5157206;27;20082;-67
2022/01/09 09:45:55;;;;;;;10.52;2.80;;;;;;;;;;5140811;27;20039;-67
2022/01/09 09:48:22;;;;;;;27.20;2.67;;;5.60;99.90;;;;;;5159211;27;20039;-68
2022/01/09 09:50:48;;;;;;;17.58;2.83;;;;;;;;;;5159251;27;20043;-68
2022/01/09 09:53:14;;;;;;;20.88;2.80;;;;;;;;;;5159129;27;20061;-68
2022/01/09 09:55:44;;;;;;;24.23;3.35;;;5.70;99.90;;;;;;5140077;27;20038;-68
2022/01/09 09:58:11;;;;;;;18.45;2.97;;;;;;;;;;5141034;27;20043;-68
2022/01/09 10:00:36;;;;;;;;;;;5.90;99.90;;;;;;5159488;27;20055;-68
2022/01/09 10:03:03;;;;;;;17.17;3.20;;;5.80;99.90;;;;;;5140447;27;20334;-68
2022/01/09 10:05:35;;;;;;;27.83;2.92;;;;;;;;;;5158927;27;20122;-68
2022/01/09 10:08:12;;;;;;;23.42;3.33;;;;;;;;;;5158272;27;20050;-69
2022/01/09 10:10:39;;;;;;;31.02;3.00;;;5.90;99.90;;;;;;5158936;27;20051;-68
2022/01/09 10:13:11;;;;;;;19.92;2.80;;;6.00;99.90;;;;;;5158762;27;20047;-69
2022/01/09 10:16:13;;;;;;;23.15;2.92;;;6.00;99.90;;;;;;5158785;27;20043;-68
2022/01/09 10:18:47;;;;;;;16.50;2.65;;;6.10;99.90;;;;;;5054354;28;20044;-69
2022/01/09 10:21:19;;;;;;;14.45;2.30;;;6.10;99.90;;;;;;5144123;27;20065;-70
2022/01/09 10:24:08;;;;;;;12.82;2.22;;;5.90;99.90;;;;;;5158080;27;20049;-69
2022/01/09 10:26:48;;;;;;;16.90;3.08;;;5.90;99.90;;;;;;5158235;27;20547;-68
2022/01/09 10:29:14;;;;;;;16.08;2.53;;;6.40;99.90;;;;;;5139935;27;20057;-69
2022/01/09 10:31:44;;;;;;;18.10;2.28;;;6.30;99.90;;;;;;5158416;27;20082;-69
2022/01/09 10:34:11;;;;;;;18.20;2.78;;;6.20;99.90;;;;;;5158327;27;20097;-72
2022/01/09 10:36:39;;;;;;;16.13;2.63;;;6.20;99.90;;;;;;5158223;27;20078;-68
2022/01/09 10:39:11;;;;;;;15.27;2.83;;;5.90;99.90;;;;;;5157768;27;20039;-69
2022/01/09 10:41:46;;;;;;;21.23;2.60;;;;;;;;;;5158236;27;20054;-68
2022/01/09 10:44:17;;;;;;;18.40;2.60;;;6.10;99.90;;;;;;5158201;27;20051;-70
2022/01/09 10:46:56;;;;;;;20.05;2.40;;;6.10;99.90;;;;;;5158172;27;20493;-68
2022/01/09 10:49:22;;;;;;;10.13;2.70;;;;;;;;;;5158045;27;20078;-68
2022/01/09 10:51:48;;;;;;;;;;;6.20;99.90;;;;;;5139302;27;20053;-68
2022/01/09 10:54:30;;;;;;;17.50;2.33;;;6.10;99.90;;;;;;5157412;27;20286;-70
2022/01/09 10:57:29;;;;;;;18.05;2.47;;;6.30;99.90;;;;;;5157774;27;20047;-68
2022/01/09 11:00:08;;;;;;;14.70;2.38;;;6.20;99.90;;;;;;5157946;27;20054;-69
2022/01/09 11:02:33;;;;;;;19.17;2.78;;;6.00;99.90;;;;;;5145876;27;20051;-68
2022/01/09 11:04:59;;;;;;;16.90;2.42;;;6.00;99.90;;;;;;5154707;27;20112;-74
2022/01/09 11:07:25;;;;;;;17.20;2.60;;;6.00;99.90;;;;;;5154605;27;20054;-69
2022/01/09 11:09:52;;;;;;;25.13;3.88;;;6.20;99.90;;;;;;5154574;27;20094;-69
2022/01/09 11:12:20;;;;;;;24.02;2.67;;;6.20;99.90;;;;;;5153838;27;20071;-74
2022/01/09 11:14:49;;;;;;;16.63;3.08;;;6.10;99.90;;;;;;5154419;27;20049;-69
2022/01/09 11:17:16;;;;;;;26.15;2.97;;;5.90;99.90;;;;;;5154417;27;20409;-69
2022/01/09 11:19:43;;;;;;;19.20;2.60;;;;;;;;;;5154156;27;20043;-72
2022/01/09 11:22:12;;;;;;;24.55;3.53;;;;;;;;;;5154377;27;20517;-70
2022/01/09 11:24:52;;;;;;;22.48;3.10;;;6.30;99.90;;;;;;5152936;27;20050;-70
2022/01/09 11:27:23;;;;;;;18.05;2.72;;;;;;;;;;5155504;27;20043;-70
2022/01/09 11:30:04;;;;;;;21.88;3.35;;;6.30;99.90;;;;;;5157073;27;20050;-72
2022/01/09 11:33:05;;;;;;;13.65;2.53;;;;;;;;;;5157261;27;20092;-72
2022/01/09 11:36:05;;;;;;;27.00;3.10;;;6.50;99.90;;;;;;5052138;28;20080;-69
2022/01/09 11:38:36;;;;;;;18.77;3.22;;;;;;;;;;5142555;27;20466;-70
2022/01/09 11:41:21;;;;;;;26.42;3.15;;;6.60;99.90;;;;;;5138966;27;20035;-69
2022/01/09 11:43:56;;;;;;;20.75;3.05;;;6.70;99.90;;;;;;5156983;27;20058;-69
2022/01/09 11:46:22;;;;;;;20.83;2.60;;;6.30;99.90;;;;;;5138714;27;20475;-71
2022/01/09 11:48:50;;;;;;;17.40;3.15;;;6.90;99.90;;;;;;5157414;27;20085;-70
2022/01/09 11:51:17;;;;;;;12.38;2.90;;;;;;;;;;5156220;27;20535;-70
2022/01/09 11:54:05;;;;;;;19.65;2.65;;;6.80;99.90;;;;;;5156723;27;20085;-69
2022/01/09 11:56:56;;;;;;;24.52;2.95;;;6.90;99.90;;;;;;5156697;27;20085;-70
2022/01/09 11:59:23;;;;;;;18.23;2.53;;;6.80;99.90;;;;;;5156755;27;20134;-70
2022/01/09 12:01:52;;;;;;;13.52;2.58;;;7.00;99.90;;;;;;5156589;27;20083;-69
2022/01/09 12:04:33;;;;;;;18.38;3.28;;;7.00;99.90;;;;;;5156130;27;20101;-69
2022/01/09 12:07:15;;;;;;;13.27;2.17;;;7.20;99.90;;;;;;5137491;27;20050;-69
2022/01/09 12:09:47;;;;;;;17.63;2.28;;;7.10;99.90;;;;;;5156545;27;20053;-70
2022/01/09 12:12:15;;;;;;;23.80;3.75;;;7.10;99.90;;;;;;5137388;27;20042;-71
2022/01/09 12:15:05;;;;;;;18.48;2.97;;;7.20;99.90;;;;;;5154030;27;20394;-70
2022/01/09 12:17:35;;;;;;;15.43;2.70;;;7.00;99.90;;;;;;5156446;27;20061;-70
2022/01/09 12:20:13;;;;;;;19.67;3.05;;;7.20;99.90;;;;;;5156265;27;20042;-71
2022/01/09 12:22:53;;;;;;;16.77;2.88;;;7.20;99.90;;;;;;5156289;27;20081;-69
2022/01/09 12:25:24;;;;;;;11.40;2.20;;;7.00;99.90;;;;;;5156285;27;20074;-70
2022/01/09 12:27:54;;;;;;;24.83;3.50;;;7.20;99.90;;;;;;5156243;27;20057;-70
2022/01/09 12:30:40;;;;;;;20.85;2.45;;;;;;;;;;5156110;27;20121;-69
2022/01/09 12:33:34;;;;;;;21.60;2.67;;;7.60;99.90;;;;;;5155813;27;20058;-70
2022/01/09 12:36:04;;;;;;;15.23;2.25;;;7.20;99.90;;;;;;5140874;27;20097;-70
2022/01/09 12:38:43;;;;;;;18.67;2.60;;;7.30;99.90;;;;;;5155967;27;20116;-71
2022/01/09 12:41:20;;;;;;;15.45;2.70;;;7.00;99.90;;;;;;5156141;27;20043;-71
2022/01/09 12:43:46;;;;;;;14.32;3.08;;;7.30;99.90;;;;;;5155983;27;20054;-74
2022/01/09 12:46:21;;;;;;;17.35;2.58;;;7.20;99.90;;;;;;5155816;27;20047;-72
2022/01/09 12:48:52;;;;;;;18.08;2.70;;;7.20;99.90;;;;;;5155592;27;20047;-71
2022/01/09 12:51:18;;;;;;;23.35;2.55;;;7.20;99.90;;;;;;5155697;27;20046;-69
2022/01/09 12:53:46;;;;;;;21.30;2.95;;;;;;;;;;5155661;27;20043;-69
2022/01/09 12:56:15;;;;;;;22.38;3.42;;;6.90;99.90;;;;;;5155694;27;20121;-71
2022/01/09 12:58:43;;;;;;;13.30;2.33;;;6.80;99.90;;;;;;5137271;27;20442;-70
2022/01/09 13:01:21;;;;;;;16.30;2.85;;;6.50;99.90;;;;;;5155503;27;20474;-70
2022/01/09 13:03:55;;;;;;;12.18;2.13;;;6.40;99.90;;;;;;5137086;27;20043;-69
2022/01/09 13:06:27;;;;;;;17.98;3.20;;;6.50;99.90;;;;;;5137121;27;20390;-69
2022/01/09 13:08:55;;;;;;;18.88;2.17;;;6.40;99.90;;;;;;5155434;27;20106;-70
2022/01/09 13:11:26;;;;;;;18.70;2.58;;;6.80;99.90;;;;;;5155349;27;20550;-70
2022/01/09 13:13:57;;;;;;;20.33;2.63;;;7.30;99.90;;;;;;5155414;27;20086;-69